Time;durP1;ratioP1;P1;durP2;ratioP2;P2;SDS_P1;SDS_P2;PMS_P1;PMS_P2;Temp;Humidity;BMP_temperature;BMP_pressure;BME280_temperature;BME280_humidity;BME280_pressure;Samples;Min_cycle;Max_cycle;Signal;HPM_P1;HPM_P2
2021/12/28 00:01:14;;;;;;;;;;;;;;;;;;5034563;28;20342;-80
2021/12/28 00:03:42;;;;;;;;;;;;;;;;;;5006061;28;19920;-82
2021/12/28 00:06:07;;;;;;;;;;;;;;;;;;5038736;28;19932;-81
2021/12/28 00:08:33;;;;;;;;;;;;;;;;;;5021092;28;19924;-81
2021/12/28 00:11:00;;;;;;;;;;;;;;;;;;5034877;28;19917;-81
2021/12/28 00:13:26;;;;;;;;;;;;;;;;;;5046341;28;19983;-81
2021/12/28 00:18:34;;;;;;;;;;;;;;;;;;5037030;28;19929;-82
2021/12/28 00:21:06;;;;;;;;;;;;;;;;;;5026843;28;20385;-82
2021/12/28 00:23:39;;;;;;;;;;;;;;;;;;5035235;28;19928;-81
2021/12/28 00:26:05;;;;;;;;;;;;;;;;;;5027512;28;19917;-81
2021/12/28 00:28:33;;;;;;;;;;;;;;;;;;5028041;28;20008;-82
2021/12/28 00:30:58;;;;;;;;;;;;;;;;;;5037139;28;19913;-82
2021/12/28 00:33:38;;;;;;;;;;;;;;;;;;5037612;28;19920;-80
2021/12/28 00:36:04;;;;;;;;;;;;;;;;;;5037145;28;19949;-80
2021/12/28 00:38:29;;;;;;;;;;;;;;;;;;5031624;28;19955;-80
2021/12/28 00:40:56;;;;;;;;;;;;;;;;;;5021367;28;20335;-80
2021/12/28 00:43:21;;;;;;;;;;;;;;;;;;4995369;28;20039;-81
2021/12/28 00:45:49;;;;;;;;;;;;;;;;;;5000199;28;19921;-82
2021/12/28 00:48:15;;;;;;;;;;;;;;;;;;5017122;28;19924;-82
2021/12/28 00:50:41;;;;;;;;;;;;;;;;;;4999150;28;19917;-82
2021/12/28 00:53:06;;;;;;;;;;;;;;;;;;5016209;28;20016;-78
2021/12/28 00:55:34;;;;;;;;;;;;;;;;;;5015986;28;20370;-79
2021/12/28 00:58:03;;;;;;;;;;;;;;;;;;4998907;28;20294;-80
2021/12/28 01:00:30;;;;;;;;;;;;;;;;;;4977427;28;19967;-79
2021/12/28 01:02:58;;;;;;;;;;;;;;;;;;5014482;28;20370;-78
2021/12/28 01:05:26;;;;;;;;;;;;;;;;;;4998254;28;19976;-79
2021/12/28 01:07:55;;;;;;;;;;;;;;;;;;5018308;28;19917;-79
2021/12/28 01:10:24;;;;;;;;;;;;;;;;;;5016247;28;19923;-79
2021/12/28 01:12:49;;;;;;;;;;;;;;;;;;5011342;28;19928;-79
2021/12/28 01:15:15;;;;;;;;;;;;;;;;;;4989427;28;19914;-80
2021/12/28 01:17:40;;;;;;;;;;;;;;;;;;5006599;28;19913;-81
2021/12/28 01:20:07;;;;;;;;;;;;;;;;;;5015976;28;19925;-80
2021/12/28 01:22:35;;;;;;;;;;;;;;;;;;4992947;28;19925;-79
2021/12/28 01:25:02;;;;;;;;;;;;;;;;;;4990187;28;20009;-78
2021/12/28 01:27:30;;;;;;;;;;;;;;;;;;4990347;28;19914;-80
2021/12/28 01:30:00;;;;;;;;;;;;;;;;;;4998756;28;19917;-81
2021/12/28 01:32:28;;;;;;;;;;;;;;;;;;4988170;28;19914;-79
2021/12/28 01:34:53;;;;;;;;;;;;;;;;;;5016705;28;19918;-79
2021/12/28 01:37:19;;;;;;;;;;;;;;;;;;5016138;28;19913;-79
2021/12/28 01:39:44;;;;;;;;;;;;;;;;;;5022010;28;20350;-78
2021/12/28 01:42:09;;;;;;;;;;;;;;;;;;5028950;28;20005;-78
2021/12/28 01:44:34;;;;;;;;;;;;;;;;;;5027449;28;19919;-78
2021/12/28 01:47:00;;;;;;;;;;;;;;;;;;5026647;28;19934;-78
2021/12/28 01:49:30;;;;;;;;;;;;;;;;;;5036689;28;19936;-78
2021/12/28 01:51:55;;;;;;;;;;;;;;;;;;5035857;28;20320;-78
2021/12/28 01:54:20;;;;;;;;;;;;;;;;;;5035137;28;20000;-79
2021/12/28 01:56:50;;;;;;;;;;;;;;;;;;5035463;28;19924;-78
2021/12/28 01:59:19;;;;;;;;;;;;;;;;;;5035141;28;19917;-78
2021/12/28 02:01:45;;;;;;;;;;;;;;;;;;5031715;28;19917;-77
2021/12/28 02:04:26;;;;;;;;;;;;;;;;;;5035227;28;20018;-77
2021/12/28 02:06:58;;;;;;;;;;;;;;;;;;5023913;28;20346;-77
2021/12/28 02:09:23;;;;;;;;;;;;;;;;;;5019244;28;20346;-77
2021/12/28 02:11:48;;;;;;;;;;;;;;;;;;5037105;28;20016;-77
2021/12/28 02:14:13;;;;;;;;;;;;;;;;;;5035536;28;19917;-78
2021/12/28 02:16:40;;;;;;;;;;;;;;;;;;5034992;28;19919;-78
2021/12/28 02:19:06;;;;;;;;;;;;;;;;;;5035664;28;19917;-78
2021/12/28 02:21:31;;;;;;;;;;;;;;;;;;5031772;28;19917;-78
2021/12/28 02:24:02;;;;;;;;;;;;;;;;;;5035481;28;19913;-78
2021/12/28 02:26:28;;;;;;;;;;;;;;;;;;5032421;28;20270;-78
2021/12/28 02:28:58;;;;;;;;;;;;;;;;;;5030785;28;19913;-79
2021/12/28 02:31:23;;;;;;;;;;;;;;;;;;5035139;28;19917;-78
2021/12/28 02:33:51;;;;;;;;;;;;;;;;;;5026970;28;19917;-79
2021/12/28 02:36:16;;;;;;;;;;;;;;;;;;5028489;28;20019;-78
2021/12/28 02:38:46;;;;;;;;;;;;;;;;;;5034654;28;20314;-78
2021/12/28 02:41:12;;;;;;;;;;;;;;;;;;5032395;28;20325;-78
2021/12/28 02:43:38;;;;;;;;;;;;;;;;;;5028184;28;19914;-78
2021/12/28 02:46:07;;;;;;;;;;;;;;;;;;5034565;28;19925;-79
2021/12/28 02:48:33;;;;;;;;;;;;;;;;;;5026097;28;19921;-78
2021/12/28 02:51:02;;;;;;;;;;;;;;;;;;5035546;28;19928;-78
2021/12/28 02:53:29;;;;;;;;;;;;;;;;;;5026852;28;20014;-78
2021/12/28 02:55:55;;;;;;;;;;;;;;;;;;5034677;28;19916;-78
2021/12/28 02:58:31;;;;;;;;;;;;;;;;;;5034547;28;20239;-78
2021/12/28 03:01:01;;;;;;;;;;;;;;;;;;5029815;28;20413;-78
2021/12/28 03:03:27;;;;;;;;;;;;;;;;;;5010861;28;19913;-78
2021/12/28 03:05:55;;;;;;;;;;;;;;;;;;5033852;28;20312;-79
2021/12/28 03:08:23;;;;;;;;;;;;;;;;;;5034261;28;20051;-78
2021/12/28 03:10:51;;;;;;;;;;;;;;;;;;5037092;28;19996;-78
2021/12/28 03:13:26;;;;;;;;;;;;;;;;;;5027727;28;19973;-78
2021/12/28 03:15:54;;;;;;;;;;;;;;;;;;5027948;28;19960;-78
2021/12/28 03:18:22;;;;;;;;;;;;;;;;;;5032694;28;19916;-78
2021/12/28 03:20:50;;;;;;;;;;;;;;;;;;5033943;28;19912;-79
2021/12/28 03:23:22;;;;;;;;;;;;;;;;;;5031787;28;19949;-78
2021/12/28 03:25:49;;;;;;;;;;;;;;;;;;5033216;28;20020;-79
2021/12/28 03:28:33;;;;;;;;;;;;;;;;;;5034032;28;20346;-79
2021/12/28 03:31:04;;;;;;;;;;;;;;;;;;5032320;28;19967;-79
2021/12/28 03:33:33;;;;;;;;;;;;;;;;;;5019678;28;19949;-79
2021/12/28 03:35:58;;;;;;;;;;;;;;;;;;5034037;28;19913;-79
2021/12/28 03:38:23;;;;;;;;;;;;;;;;;;5033828;28;20044;-79
2021/12/28 03:40:51;;;;;;;;;;;;;;;;;;5033289;28;19940;-78
2021/12/28 03:43:17;;;;;;;;;;;;;;;;;;5024323;28;20472;-79
2021/12/28 03:45:42;;;;;;;;;;;;;;;;;;5033362;28;19917;-79
2021/12/28 03:48:08;;;;;;;;;;;;;;;;;;5021600;28;19931;-78
2021/12/28 03:50:36;;;;;;;;;;;;;;;;;;5033577;28;19955;-78
2021/12/28 03:53:03;;;;;;;;;;;;;;;;;;5033400;28;20370;-79
2021/12/28 03:55:29;;;;;;;;;;;;;;;;;;5033470;28;19917;-78
2021/12/28 03:57:59;;;;;;;;;;;;;;;;;;5033038;28;20380;-78
2021/12/28 04:00:27;;;;;;;;;;;;;;;;;;5033372;28;19971;-79
2021/12/28 04:02:52;;;;;;;;;;;;;;;;;;5025975;28;20413;-79
2021/12/28 04:05:20;;;;;;;;;;;;;;;;;;5033178;28;19917;-79
2021/12/28 04:07:48;;;;;;;;;;;;;;;;;;5024496;28;20273;-79
2021/12/28 04:10:15;;;;;;;;;;;;;;;;;;5033263;28;19970;-79
2021/12/28 04:12:41;;;;;;;;;;;;;;;;;;5026917;28;19976;-77
2021/12/28 04:15:07;;;;;;;;;;;;;;;;;;5033076;28;19956;-78
2021/12/28 04:17:34;;;;;;;;;;;;;;;;;;5033212;28;19917;-78
2021/12/28 04:19:59;;;;;;;;;;;;;;;;;;5024289;28;20266;-78
2021/12/28 04:22:24;;;;;;;;;;;;;;;;;;5033142;28;19921;-78
2021/12/28 04:24:52;;;;;;;;;;;;;;;;;;5033421;28;19929;-78
2021/12/28 04:27:22;;;;;;;;;;;;;;;;;;5032971;28;20028;-78
2021/12/28 04:29:52;;;;;;;;;;;;;;;;;;5033954;28;19964;-78
2021/12/28 04:32:17;;;;;;;;;;;;;;;;;;5018853;28;19996;-78
2021/12/28 04:34:45;;;;;;;;;;;;;;;;;;5030396;28;19917;-79
2021/12/28 04:37:10;;;;;;;;;;;;;;;;;;5033294;28;19921;-78
2021/12/28 04:39:40;;;;;;;;;;;;;;;;;;5033512;28;19983;-78
2021/12/28 04:42:08;;;;;;;;;;;;;;;;;;5033011;28;19921;-78
2021/12/28 04:44:35;;;;;;;;;;;;;;;;;;5033018;28;19917;-77
2021/12/28 04:47:01;;;;;;;;;;;;;;;;;;5015685;28;19913;-78
2021/12/28 04:49:31;;;;;;;;;;;;;;;;;;5034094;28;20308;-78
2021/12/28 04:51:59;;;;;;;;;;;;;;;;;;5033549;28;19987;-78
2021/12/28 04:54:24;;;;;;;;;;;;;;;;;;5046833;28;19917;-78
2021/12/28 04:56:51;;;;;;;;;;;;;;;;;;5049083;28;19917;-78
2021/12/28 04:59:17;;;;;;;;;;;;;;;;;;5046509;28;19939;-78
2021/12/28 05:01:45;;;;;;;;;;;;;;;;;;5041405;28;20239;-78
2021/12/28 05:04:17;;;;;;;;;;;;;;;;;;5038315;28;20328;-78
2021/12/28 05:06:45;;;;;;;;;;;;;;;;;;5045584;28;19924;-77
2021/12/28 05:09:15;;;;;;;;;;;;;;;;;;5045854;28;19912;-78
2021/12/28 05:11:43;;;;;;;;;;;;;;;;;;5039347;28;19917;-77
2021/12/28 05:14:11;;;;;;;;;;;;;;;;;;5036670;28;19921;-78
2021/12/28 05:16:38;;;;;;;;;;;;;;;;;;5036578;28;19967;-78
2021/12/28 05:19:06;;;;;;;;;;;;;;;;;;5054342;28;19975;-79
2021/12/28 05:21:34;;;;;;;;;;;;;;;;;;5054333;28;19925;-78
2021/12/28 05:24:00;;;;;;;;;;;;;;;;;;5037107;28;19967;-77
2021/12/28 05:26:25;;;;;;;;;;;;;;;;;;5036549;28;19917;-77
2021/12/28 05:28:53;;;;;;;;;;;;;;;;;;5047648;28;19916;-77
2021/12/28 05:31:18;;;;;;;;;;;;;;;;;;5036659;28;20059;-77
2021/12/28 05:33:44;;;;;;;;;;;;;;;;;;5019009;28;20012;-78
2021/12/28 05:36:09;;;;;;;;;;;;;;;;;;4999967;28;19925;-77
2021/12/28 05:38:34;;;;;;;;;;;;;;;;;;5035209;28;19940;-78
2021/12/28 05:41:00;;;;;;;;;;;;;;;;;;5036073;28;20003;-78
2021/12/28 05:43:25;;;;;;;;;;;;;;;;;;5041495;28;19921;-78
2021/12/28 05:45:50;;;;;;;;;;;;;;;;;;5036148;28;20220;-78
2021/12/28 05:48:16;;;;;;;;;;;;;;;;;;5036215;28;19917;-78
2021/12/28 05:50:41;;;;;;;;;;;;;;;;;;5036179;28;20351;-78
2021/12/28 05:53:06;;;;;;;;;;;;;;;;;;5035940;28;19924;-78
2021/12/28 05:55:31;;;;;;;;;;;;;;;;;;5035876;28;19978;-78
2021/12/28 05:57:57;;;;;;;;;;;;;;;;;;5035907;28;19913;-78
2021/12/28 06:00:24;;;;;;;;;;;;;;;;;;5035911;28;19924;-78
2021/12/28 06:02:50;;;;;;;;;;;;;;;;;;5035930;28;19917;-78
2021/12/28 06:05:15;;;;;;;;;;;;;;;;;;5037950;28;19929;-77
2021/12/28 06:07:40;;;;;;;;;;;;;;;;;;5055694;28;20011;-78
2021/12/28 06:10:08;;;;;;;;;;;;;;;;;;5049812;28;20262;-78
2021/12/28 06:12:33;;;;;;;;;;;;;;;;;;5035578;28;19939;-78
2021/12/28 06:14:58;;;;;;;;;;;;;;;;;;5035413;28;19924;-78
2021/12/28 06:17:24;;;;;;;;;;;;;;;;;;5054516;28;19927;-79
2021/12/28 06:19:54;;;;;;;;;;;;;;;;;;5054449;28;19912;-78
2021/12/28 06:22:21;;;;;;;;;;;;;;;;;;5035392;28;19913;-78
2021/12/28 06:24:48;;;;;;;;;;;;;;;;;;5035144;28;19921;-78
2021/12/28 06:27:14;;;;;;;;;;;;;;;;;;5034732;28;20057;-78
2021/12/28 06:29:44;;;;;;;;;;;;;;;;;;5035532;28;20362;-79
2021/12/28 06:32:13;;;;;;;;;;;;;;;;;;5030572;28;19992;-79
2021/12/28 06:34:41;;;;;;;;;;;;;;;;;;5015426;28;20308;-78
2021/12/28 06:37:07;;;;;;;;;;;;;;;;;;5031791;28;19967;-78
2021/12/28 06:39:32;;;;;;;;;;;;;;;;;;5030184;28;19917;-78
2021/12/28 06:41:59;;;;;;;;;;;;;;;;;;4998114;28;19921;-78
2021/12/28 06:44:27;;;;;;;;;;;;;;;;;;5015576;28;19914;-78
2021/12/28 06:46:53;;;;;;;;;;;;;;;;;;5015038;28;20010;-78
2021/12/28 06:49:18;;;;;;;;;;;;;;;;;;4997812;28;19961;-79
2021/12/28 06:51:43;;;;;;;;;;;;;;;;;;5015508;28;19917;-78
2021/12/28 06:54:09;;;;;;;;;;;;;;;;;;5014870;28;19918;-78
2021/12/28 06:56:36;;;;;;;;;;;;;;;;;;5008846;28;20388;-78
2021/12/28 06:59:02;;;;;;;;;;;;;;;;;;5018365;28;19999;-78
2021/12/28 07:01:32;;;;;;;;;;;;;;;;;;5022039;28;20324;-79
2021/12/28 07:03:59;;;;;;;;;;;;;;;;;;5015083;28;20386;-78
2021/12/28 07:06:26;;;;;;;;;;;;;;;;;;4991764;28;20334;-78
2021/12/28 07:08:54;;;;;;;;;;;;;;;;;;5015693;28;20027;-78
2021/12/28 07:11:20;;;;;;;;;;;;;;;;;;4998966;28;19980;-78
2021/12/28 07:13:49;;;;;;;;;;;;;;;;;;5015096;28;19925;-78
2021/12/28 07:16:15;;;;;;;;;;;;;;;;;;4999537;28;19957;-78
2021/12/28 07:18:40;;;;;;;;;;;;;;;;;;5004088;28;19917;-78
2021/12/28 07:21:07;;;;;;;;;;;;;;;;;;5027943;28;19921;-77
2021/12/28 07:23:33;;;;;;;;;;;;;;;;;;5006350;28;20398;-78
2021/12/28 07:25:58;;;;;;;;;;;;;;;;;;4994817;28;19921;-78
2021/12/28 07:28:26;;;;;;;;;;;;;;;;;;5001175;28;20342;-78
2021/12/28 07:30:54;;;;;;;;;;;;;;;;;;4997517;28;19917;-78
2021/12/28 07:33:19;;;;;;;;;;;;;;;;;;5014747;28;20257;-78
2021/12/28 07:35:44;;;;;;;;;;;;;;;;;;4997431;28;20012;-78
2021/12/28 07:38:12;;;;;;;;;;;;;;;;;;5016239;28;19924;-78
2021/12/28 07:40:37;;;;;;;;;;;;;;;;;;5047525;28;19960;-78
2021/12/28 07:43:03;;;;;;;;;;;;;;;;;;5051836;28;20013;-78
2021/12/28 07:45:28;;;;;;;;;;;;;;;;;;5032929;28;19920;-78
2021/12/28 07:47:53;;;;;;;;;;;;;;;;;;5034188;28;19924;-78
2021/12/28 07:50:18;;;;;;;;;;;;;;;;;;5033917;28;20016;-78
2021/12/28 07:52:44;;;;;;;;;;;;;;;;;;5033835;28;20007;-78
2021/12/28 07:55:14;;;;;;;;;;;;;;;;;;5034286;28;19920;-78
2021/12/28 07:57:39;;;;;;;;;;;;;;;;;;5032997;28;19939;-78
2021/12/28 08:00:09;;;;;;;;;;;;;;;;;;5032865;28;19918;-78
2021/12/28 08:02:35;;;;;;;;;;;;;;;;;;5034167;28;19956;-79
2021/12/28 08:05:00;;;;;;;;;;;;;;;;;;5034194;28;20397;-79
2021/12/28 08:07:25;;;;;;;;;;;;;;;;;;5033935;28;19923;-79
2021/12/28 08:09:50;;;;;;;;;;;;;;;;;;5044016;28;19962;-79
2021/12/28 08:12:18;;;;;;;;;;;;;;;;;;5048363;28;19917;-79
2021/12/28 08:14:43;;;;;;;;;;;;;;;;;;5033358;28;19912;-79
2021/12/28 08:17:10;;;;;;;;;;;;;;;;;;5037438;28;19913;-78
2021/12/28 08:19:37;;;;;;;;;;;;;;;;;;5035312;28;20055;-78
2021/12/28 08:22:05;;;;;;;;;;;;;;;;;;5034482;28;20354;-78
2021/12/28 08:24:31;;;;;;;;;;;;;;;;;;5033942;28;19913;-78
2021/12/28 08:26:59;;;;;;;;;;;;;;;;;;5032843;28;19920;-78
2021/12/28 08:29:27;;;;;;;;;;;;;;;;;;5033423;28;19913;-78
2021/12/28 08:31:54;;;;;;;;;;;;;;;;;;5036142;28;19925;-78
2021/12/28 08:34:22;;;;;;;;;;;;;;;;;;5037580;28;19913;-78
2021/12/28 08:36:49;;;;;;;;;;;;;;;;;;5037271;28;19971;-78
2021/12/28 08:39:14;;;;;;;;;;;;;;;;;;5037072;28;19913;-78
2021/12/28 08:41:42;;;;;;;;;;;;;;;;;;5037362;28;20365;-79
2021/12/28 08:44:07;;;;;;;;;;;;;;;;;;5037105;28;20353;-79
2021/12/28 08:46:32;;;;;;;;;;;;;;;;;;5037408;28;19928;-78
2021/12/28 08:49:00;;;;;;;;;;;;;;;;;;5037162;28;19912;-78
2021/12/28 08:51:25;;;;;;;;;;;;;;;;;;5038851;28;20003;-78
2021/12/28 08:53:53;;;;;;;;;;;;;;;;;;5056950;28;19963;-79
2021/12/28 08:56:18;;;;;;;;;;;;;;;;;;5054543;28;20342;-79
2021/12/28 08:58:43;;;;;;;;;;;;;;;;;;5036289;28;19917;-79
2021/12/28 09:01:11;;;;;;;;;;;;;;;;;;5037056;28;19979;-78
2021/12/28 09:03:38;;;;;;;;;;;;;;;;;;5036903;28;20333;-78
2021/12/28 09:06:05;;;;;;;;;;;;;;;;;;5037718;28;19925;-79
2021/12/28 09:08:33;;;;;;;;;;;;;;;;;;5035615;28;19917;-78
2021/12/28 09:11:03;;;;;;;;;;;;;;;;;;5037570;28;19944;-78
2021/12/28 09:13:28;;;;;;;;;;;;;;;;;;5017154;28;20265;-79
2021/12/28 09:15:55;;;;;;;;;;;;;;;;;;5031722;28;20000;-78
2021/12/28 09:18:22;;;;;;;;;;;;;;;;;;5047406;28;19960;-79
2021/12/28 09:20:47;;;;;;;;;;;;;;;;;;5041551;28;19916;-79
2021/12/28 09:23:12;;;;;;;;;;;;;;;;;;5040293;28;19956;-78
2021/12/28 09:25:40;;;;;;;;;;;;;;;;;;5037099;28;20338;-79
2021/12/28 09:28:06;;;;;;;;;;;;;;;;;;5035817;28;19948;-79
2021/12/28 09:30:32;;;;;;;;;;;;;;;;;;5045409;28;19916;-79
2021/12/28 09:32:57;;;;;;;;;;;;;;;;;;5040727;28;19973;-78
2021/12/28 09:35:23;;;;;;;;;;;;;;;;;;5056511;28;19978;-79
2021/12/28 09:37:48;;;;;;;;;;;;;;;;;;5054328;28;20007;-78
2021/12/28 09:40:13;;;;;;;;;;;;;;;;;;5056187;28;20385;-78
2021/12/28 09:42:39;;;;;;;;;;;;;;;;;;5051331;28;19927;-79
2021/12/28 09:45:09;;;;;;;;;;;;;;;;;;5035982;28;19944;-79
2021/12/28 09:47:41;;;;;;;;;;;;;;;;;;5038103;28;19917;-79
2021/12/28 09:50:06;;;;;;;;;;;;;;;;;;5036389;28;19923;-79
2021/12/28 09:52:32;;;;;;;;;;;;;;;;;;5035034;28;19925;-79
2021/12/28 09:54:59;;;;;;;;;;;;;;;;;;5035962;28;19913;-79
2021/12/28 09:57:24;;;;;;;;;;;;;;;;;;5036095;28;19913;-80
2021/12/28 09:59:49;;;;;;;;;;;;;;;;;;5045034;28;19917;-79
2021/12/28 10:02:15;;;;;;;;;;;;;;;;;;5035126;28;19924;-81
2021/12/28 10:04:58;;;;;;;;;;;;;;;;;;5035481;28;20004;-79
2021/12/28 10:07:33;;;;;;;;;;;;;;;;;;5035216;28;19923;-79
2021/12/28 10:09:59;;;;;;;;;;;;;;;;;;5015062;28;19913;-79
2021/12/28 10:12:31;;;;;;;;;;;;;;;;;;5017781;28;19975;-78
2021/12/28 10:15:00;;;;;;;;;;;;;;;;;;5034166;28;19928;-78
2021/12/28 10:17:28;;;;;;;;;;;;;;;;;;5035674;28;19913;-78
2021/12/28 10:19:53;;;;;;;;;;;;;;;;;;5047455;28;20394;-79
2021/12/28 10:22:25;;;;;;;;;;;;;;;;;;5034534;28;19924;-79
2021/12/28 10:25:12;;;;;;;;;;;;;;;;;;5034175;28;20067;-81
2021/12/28 10:27:42;;;;;;;;;;;;;;;;;;5034336;28;19917;-79
2021/12/28 10:30:14;;;;;;;;;;;;;;;;;;5035115;28;19913;-79
2021/12/28 10:32:44;;;;;;;;;;;;;;;;;;5034088;28;20354;-79
2021/12/28 10:35:19;;;;;;;;;;;;;;;;;;5034788;28;20011;-79
2021/12/28 10:37:58;;;;;;;;;;;;;;;;;;5010042;28;19928;-80
2021/12/28 10:40:26;;;;;;;;;;;;;;;;;;5025239;28;19936;-80
2021/12/28 10:42:53;;;;;;;;;;;;;;;;;;5017519;28;19998;-79
2021/12/28 10:46:00;;;;;;;;;;;;;;;;;;5034853;28;19924;-80
2021/12/28 10:48:39;;;;;;;;;;;;;;;;;;4991753;28;19926;-78
2021/12/28 10:51:18;;;;;;;;;;;;;;;;;;4991313;28;19953;-81
2021/12/28 10:53:59;;;;;;;;;;;;;;;;;;4975207;28;20405;-83
2021/12/28 10:56:25;;;;;;;;;;;;;;;;;;4991963;28;19941;-80
2021/12/28 10:58:51;;;;;;;;;;;;;;;;;;4979310;28;20362;-81
2021/12/28 11:01:20;;;;;;;;;;;;;;;;;;4975583;28;19956;-79
2021/12/28 11:03:55;;;;;;;;;;;;;;;;;;4974444;28;20009;-79
2021/12/28 11:06:27;;;;;;;;;;;;;;;;;;4991648;28;20421;-82
2021/12/28 11:09:24;;;;;;;;;;;;;;;;;;4991449;28;19984;-81
2021/12/28 11:11:51;;;;;;;;;;;;;;;;;;4953535;28;20013;-80
2021/12/28 11:14:20;;;;;;;;;;;;;;;;;;4951992;28;19918;-80
2021/12/28 11:17:18;;;;;;;;;;;;;;;;;;4952753;28;19957;-82
2021/12/28 11:19:44;;;;;;;;;;;;;;;;;;4960409;28;20314;-81
2021/12/28 11:22:11;;;;;;;;;;;;;;;;;;4971999;28;20020;-82
2021/12/28 11:24:39;;;;;;;;;;;;;;;;;;4972262;28;19929;-80
2021/12/28 11:27:06;;;;;;;;;;;;;;;;;;4972669;28;20324;-81
2021/12/28 11:29:35;;;;;;;;;;;;;;;;;;4971823;28;19922;-81
2021/12/28 11:32:04;;;;;;;;;;;;;;;;;;4955893;28;19918;-81
2021/12/28 11:34:37;;;;;;;;;;;;;;;;;;4971969;28;19929;-86
2021/12/28 11:37:04;;;;;;;;;;;;;;;;;;4955756;28;19914;-82
2021/12/28 11:39:31;;;;;;;;;;;;;;;;;;4971801;28;19921;-76
2021/12/28 11:42:02;;;;;;;;;;;;;;;;;;4955279;28;21523;-80
2021/12/28 11:44:27;;;;;;;;;;;;;;;;;;4956545;28;19948;-78
2021/12/28 11:46:53;;;;;;;;;;;;;;;;;;4974278;28;19933;-79
2021/12/28 11:49:22;;;;;;;;;;;;;;;;;;5005169;28;20008;-81
2021/12/28 11:52:11;;;;;;;;;;;;;;;;;;4999402;28;19918;-78
2021/12/28 11:54:37;;;;;;;;;;;;;;;;;;4995085;28;19926;-80
2021/12/28 11:57:09;;;;;;;;;;;;;;;;;;5003151;28;19932;-79
2021/12/28 11:59:34;;;;;;;;;;;;;;;;;;5021524;28;19976;-78
2021/12/28 12:01:59;;;;;;;;;;;;;;;;;;5010402;28;19925;-79
2021/12/28 12:04:27;;;;;;;;;;;;;;;;;;5032836;28;20008;-80
2021/12/28 12:07:00;;;;;;;;;;;;;;;;;;5016556;28;19922;-78
2021/12/28 12:09:25;;;;;;;;;;;;;;;;;;5026816;28;19928;-81
2021/12/28 12:12:09;;;;;;;;;;;;;;;;;;5022305;28;19917;-79
2021/12/28 12:14:52;;;;;;;;;;;;;;;;;;5015857;28;19975;-78
2021/12/28 12:17:45;;;;;;;;;;;;;;;;;;5017189;28;20321;-78
2021/12/28 12:20:13;;;;;;;;;;;;;;;;;;5016870;28;19956;-78
2021/12/28 12:22:48;;;;;;;;;;;;;;;;;;5016730;28;19918;-78
2021/12/28 12:25:14;;;;;;;;;;;;;;;;;;4998373;28;19924;-82
2021/12/28 12:27:50;;;;;;;;;;;;;;;;;;5019291;28;19972;-80
2021/12/28 12:30:28;;;;;;;;;;;;;;;;;;5019892;28;19918;-81
2021/12/28 12:33:02;;;;;;;;;;;;;;;;;;5017673;28;19921;-79
2021/12/28 12:35:47;;;;;;;;;;;;;;;;;;5017256;28;19928;-80
2021/12/28 12:38:21;;;;;;;;;;;;;;;;;;5017353;28;19917;-81
2021/12/28 12:41:06;;;;;;;;;;;;;;;;;;5017046;28;20343;-81
2021/12/28 12:46:38;;;;;;;;;;;;;;;;;;5033383;28;19928;-81
2021/12/28 12:49:15;;;;;;;;;;;;;;;;;;5035607;28;19931;-80
2021/12/28 12:51:45;;;;;;;;;;;;;;;;;;5034364;28;19979;-81
2021/12/28 12:54:14;;;;;;;;;;;;;;;;;;5031313;28;20249;-80
2021/12/28 12:56:43;;;;;;;;;;;;;;;;;;5040121;28;19971;-81
2021/12/28 12:59:14;;;;;;;;;;;;;;;;;;5031908;28;20005;-82
2021/12/28 13:01:39;;;;;;;;;;;;;;;;;;5038928;28;19969;-83
2021/12/28 13:04:26;;;;;;;;;;;;;;;;;;5039023;28;20338;-83
2021/12/28 13:07:07;;;;;;;;;;;;;;;;;;5036088;28;20261;-84
2021/12/28 13:09:35;;;;;;;;;;;;;;;;;;5036394;28;19960;-82
2021/12/28 13:12:11;;;;;;;;;;;;;;;;;;5026834;28;19913;-81
2021/12/28 13:14:39;;;;;;;;;;;;;;;;;;5034072;28;19917;-80
2021/12/28 13:17:07;;;;;;;;;;;;;;;;;;5036947;28;19998;-79
2021/12/28 13:19:38;;;;;;;;;;;;;;;;;;5033040;28;20042;-80
2021/12/28 13:22:07;;;;;;;;;;;;;;;;;;5040189;28;19921;-83
2021/12/28 13:24:43;;;;;;;;;;;;;;;;;;5039133;28;20070;-85
2021/12/28 13:27:44;;;;;;;;;;;;;;;;;;;;;
2021/12/28 13:30:45;;;;;;;;;;;;;;;;;;5033666;28;19913;-85
2021/12/28 13:33:29;;;;;;;;;;;;;;;;;;5032784;28;19913;-81
2021/12/28 13:35:57;;;;;;;;;;;;;;;;;;5025302;28;19925;-82
2021/12/28 13:38:27;;;;;;;;;;;;;;;;;;5036636;28;20063;-81
2021/12/28 13:40:54;;;;;;;;;;;;;;;;;;5026227;28;20015;-82
2021/12/28 13:43:26;;;;;;;;;;;;;;;;;;5035703;28;20064;-82
2021/12/28 13:45:54;;;;;;;;;;;;;;;;;;5009801;28;19913;-82
2021/12/28 13:48:32;;;;;;;;;;;;;;;;;;5030462;28;19963;-82
2021/12/28 13:54:23;;;;;;;;;;;;;;;;;;5024422;28;19912;-82
2021/12/28 13:56:55;;;;;;;;;;;;;;;;;;5020210;28;19913;-82
2021/12/28 13:59:21;;;;;;;;;;;;;;;;;;5029621;28;19924;-82
2021/12/28 14:01:46;;;;;;;;;;;;;;;;;;5026240;28;19917;-81
2021/12/28 14:04:19;;;;;;;;;;;;;;;;;;5035185;28;19987;-82
2021/12/28 14:06:45;;;;;;;;;;;;;;;;;;5028166;28;19917;-81
2021/12/28 14:09:11;;;;;;;;;;;;;;;;;;5032933;28;19971;-81
2021/12/28 14:11:44;;;;;;;;;;;;;;;;;;5035543;28;19974;-81
2021/12/28 14:14:13;;;;;;;;;;;;;;;;;;5007298;28;19921;-81
2021/12/28 14:16:55;;;;;;;;;;;;;;;;;;5034984;28;19979;-81
2021/12/28 14:19:23;;;;;;;;;;;;;;;;;;5034165;28;19913;-81
2021/12/28 14:21:53;;;;;;;;;;;;;;;;;;5034873;28;19931;-81
2021/12/28 14:24:18;;;;;;;;;;;;;;;;;;5013679;28;19916;-81
2021/12/28 14:26:47;;;;;;;;;;;;;;;;;;5035551;28;19917;-81
2021/12/28 14:29:17;;;;;;;;;;;;;;;;;;5027364;28;20381;-81
2021/12/28 14:31:58;;;;;;;;;;;;;;;;;;5032225;28;19948;-78
2021/12/28 14:34:40;;;;;;;;;;;;;;;;;;5011840;28;19913;-79
2021/12/28 14:37:07;;;;;;;;;;;;;;;;;;5028386;28;20338;-79
2021/12/28 14:39:44;;;;;;;;;;;;;;;;;;5025288;28;19921;-79
2021/12/28 14:42:17;;;;;;;;;;;;;;;;;;5024524;28;19922;-79
2021/12/28 14:45:03;;;;;;;;;;;;;;;;;;5034467;28;19913;-80
2021/12/28 14:47:29;;;;;;;;;;;;;;;;;;5010569;28;19913;-79
2021/12/28 14:49:58;;;;;;;;;;;;;;;;;;5025705;28;20330;-80
2021/12/28 14:52:23;;;;;;;;;;;;;;;;;;5034760;28;20039;-79
2021/12/28 14:55:10;;;;;;;;;;;;;;;;;;5034423;28;20346;-79
2021/12/28 14:57:47;;;;;;;;;;;;;;;;;;5028152;28;19913;-79
2021/12/28 15:00:18;;;;;;;;;;;;;;;;;;5025407;28;19917;-79
2021/12/28 15:02:53;;;;;;;;;;;;;;;;;;5032165;28;19949;-79
2021/12/28 15:05:19;;;;;;;;;;;;;;;;;;5006143;28;19924;-79
2021/12/28 15:07:52;;;;;;;;;;;;;;;;;;5034037;28;19928;-80
2021/12/28 15:10:19;;;;;;;;;;;;;;;;;;5040616;28;20503;-79
2021/12/28 15:12:47;;;;;;;;;;;;;;;;;;5053629;28;19912;-78
2021/12/28 15:15:13;;;;;;;;;;;;;;;;;;4996607;28;19960;-78
2021/12/28 15:17:38;;;;;;;;;;;;;;;;;;4976616;28;19957;-77
2021/12/28 15:20:10;;;;;;;;;;;;;;;;;;4992848;28;19925;-79
2021/12/28 15:22:37;;;;;;;;;;;;;;;;;;4990649;28;19952;-79
2021/12/28 15:25:05;;;;;;;;;;;;;;;;;;5007120;28;19921;-80
2021/12/28 15:27:35;;;;;;;;;;;;;;;;;;4992594;28;19914;-77
2021/12/28 15:30:03;;;;;;;;;;;;;;;;;;4998605;28;19997;-78
2021/12/28 15:32:29;;;;;;;;;;;;;;;;;;4995814;28;19914;-78
2021/12/28 15:34:57;;;;;;;;;;;;;;;;;;4992649;28;19928;-78
2021/12/28 15:37:22;;;;;;;;;;;;;;;;;;4993866;28;19918;-78
2021/12/28 15:39:49;;;;;;;;;;;;;;;;;;5021686;28;19932;-78
2021/12/28 15:42:15;;;;;;;;;;;;;;;;;;5038744;28;20339;-78
2021/12/28 15:44:40;;;;;;;;;;;;;;;;;;5033424;28;20004;-78
2021/12/28 15:47:05;;;;;;;;;;;;;;;;;;5033965;28;19956;-78
2021/12/28 15:49:30;;;;;;;;;;;;;;;;;;5031762;28;19925;-79
2021/12/28 15:51:56;;;;;;;;;;;;;;;;;;5040002;28;19916;-78
2021/12/28 15:54:21;;;;;;;;;;;;;;;;;;5044504;28;19913;-78
2021/12/28 15:56:47;;;;;;;;;;;;;;;;;;5033701;28;19921;-79
2021/12/28 15:59:14;;;;;;;;;;;;;;;;;;5042561;28;19921;-79
2021/12/28 16:01:42;;;;;;;;;;;;;;;;;;5022291;28;19927;-82
2021/12/28 16:04:08;;;;;;;;;;;;;;;;;;5043017;28;20286;-79
2021/12/28 16:06:35;;;;;;;;;;;;;;;;;;5037490;28;19916;-78
2021/12/28 16:09:01;;;;;;;;;;;;;;;;;;5041021;28;19924;-78
2021/12/28 16:11:27;;;;;;;;;;;;;;;;;;5033344;28;19913;-78
2021/12/28 16:13:56;;;;;;;;;;;;;;;;;;5033707;28;20338;-78
2021/12/28 16:16:22;;;;;;;;;;;;;;;;;;5033717;28;19913;-78
2021/12/28 16:18:49;;;;;;;;;;;;;;;;;;5033419;28;19924;-81
2021/12/28 16:21:18;;;;;;;;;;;;;;;;;;5033048;28;19913;-83
2021/12/28 16:23:43;;;;;;;;;;;;;;;;;;5033678;28;19921;-83
2021/12/28 16:26:08;;;;;;;;;;;;;;;;;;5033580;28;19913;-81
2021/12/28 16:28:34;;;;;;;;;;;;;;;;;;5032829;28;19913;-82
2021/12/28 16:30:59;;;;;;;;;;;;;;;;;;5033486;28;19913;-81
2021/12/28 16:33:34;;;;;;;;;;;;;;;;;;5033745;28;20406;-82
2021/12/28 16:36:05;;;;;;;;;;;;;;;;;;5039686;28;19913;-81
2021/12/28 16:38:34;;;;;;;;;;;;;;;;;;5037244;28;19912;-82
2021/12/28 16:41:04;;;;;;;;;;;;;;;;;;5040597;28;19922;-82
2021/12/28 16:43:31;;;;;;;;;;;;;;;;;;5034272;28;19920;-83
2021/12/28 16:45:59;;;;;;;;;;;;;;;;;;5038869;28;19917;-82
2021/12/28 16:48:25;;;;;;;;;;;;;;;;;;5040239;28;19948;-83
2021/12/28 16:53:56;;;;;;;;;;;;;;;;;;5032910;28;19924;-83
2021/12/28 16:56:22;;;;;;;;;;;;;;;;;;5034134;28;19928;-83
2021/12/28 16:58:54;;;;;;;;;;;;;;;;;;5036674;28;19924;-82
2021/12/28 17:01:22;;;;;;;;;;;;;;;;;;5036593;28;19917;-83
2021/12/28 17:03:49;;;;;;;;;;;;;;;;;;5033353;28;19970;-83
2021/12/28 17:06:17;;;;;;;;;;;;;;;;;;5036263;28;19987;-82
2021/12/28 17:08:45;;;;;;;;;;;;;;;;;;5037797;28;19912;-82